Pablo Herrero

Olheiro-Chefe - Gijón
9 Dez 2027
Quinta-feira
Processo

Personalidade

Adaptabilidade (1) Ambição (3) Controvérsia (3) Lealdade (9) Pressão (5) Profissionalismo (13) Espírito Esportivo (18) Temperamento (18)

Perfil

Estilo de Treinamento Democrático
Licença Nacional A
Determinação 11
Gestão de Pessoas 6
Motivação 8
Disciplina 7
Satisfação no Trabalho
100%
Fadiga
0%
Função Olheiro-Chefe
Salário 43.0K p/s
Contrato 14.03.2028

Desempenho

Comportamento Bom
Eficácia do Treinamento
33%
Desenvolvimento do Jogador
35%
Prevenção de Lesões
65%
Implementação Tática
20%

Eventos Recentes

Avaliou um jogador agora
Participou de uma reunião de recrutamento agora
Recomendou um alvo de transferência agora
Recomendou um alvo de transferência agora
Participou de uma reunião de recrutamento agora
Recomendou um alvo de transferência agora
Participou de uma reunião de recrutamento agora
Observou uma partida 7d atrás

Monitorando agora

246
Jogador Clube Status Habilidade Confiança Observado Última observação Último voto
Olaniyi Saheed Kwara United Ativo 100 / 111 40% 9 07.12.2027 -
Archie Gray Derby County Ativo 154 / 154 40% 2 07.12.2027 -
Dmitry Pestryakov Dinamo Moscow Ativo 115 / 112 40% 1 07.12.2027 -
Lucas Camejo River Plate Ativo 84 / 80 40% 4 06.12.2027 -
Nazareno Roselli Defensa y Justicia Ativo 112 / 122 40% 1 06.12.2027 -
Felipe Obradovich Ferro Carril Oeste Ativo 109 / 99 40% 4 29.11.2027 -
Hervin Goyes Deportivo Pasto Ativo 108 / 94 40% 3 29.11.2027 -
Óscar Hinojosa Metropolitanos Ativo 87 / 72 40% 1 29.11.2027 -
Sebastián Ramírez Jaguares Ativo 113 / 113 40% 6 27.11.2027 -
Gift Udoh Ikorodu City Ativo 92 / 97 40% 5 27.11.2027 -
Mikkel Hope Haugesund Ativo 100 / 125 40% 3 26.11.2027 -
Matías Canedo Rampla Juniors Ativo 80 / 88 40% 2 26.11.2027 -
Joel Ezra Enyimba Ativo 100 / 113 40% 5 21.11.2027 -
Hosea Michael Remo Stars Ativo 86 / 78 40% 1 21.11.2027 -
David Damboama El-Kanemi Warriors Ativo 88 / 87 40% 4 18.11.2027 -
José Correa Deportivo Tachira Ativo 91 / 99 40% 2 18.11.2027 -
Juan Camilo Córdoba Deportivo Pereira Ativo 86 / 93 40% 3 17.11.2027 -
Jhon Cortez Barranquilla Ativo 92 / 99 40% 5 17.11.2027 -
Axel Tape Bayer Leverkusen Ativo 130 / 138 40% 3 16.11.2027 -
Nicolas Sport Recife Ativo 111 / 110 40% 1 16.11.2027 -
Mads Bomholt Stabaek Ativo 115 / 131 40% 2 15.11.2027 -
Luis Otávio Colorado Rapids Ativo 113 / 134 40% 1 15.11.2027 -
Godwin Oham Warri Wolves Ativo 95 / 102 40% 6 11.11.2027 -
Daniel Gomez Valledupar Ativo 87 / 88 40% 3 10.11.2027 -
Celías Ingenthron Vélez Ativo 112 / 139 40% 2 09.11.2027 -
Ayden Heaven Luton Town Ativo 150 / 146 40% 1 09.11.2027 -
Ignacio Fernández Boston River Ativo 97 / 83 40% 1 09.11.2027 -
Ricky Atletico Venezuela Ativo 90 / 96 40% 3 07.11.2027 -
Marvelous Freedom Ikorodu City Ativo 90 / 103 40% 1 07.11.2027 -
Ángel Aguayo Sol de America Ativo 96 / 86 40% 1 06.11.2027 -
Mauro Carrizo Atlético Tucumán Ativo 99 / 91 40% 6 04.11.2027 -
Julio Patiño Fortaleza CEIF Ativo 80 / 87 40% 1 04.11.2027 -
Alejandro Almaraz Nueva Chicago Ativo 105 / 111 40% 1 30.10.2027 -
Agustín Obregón River Plate Ativo 119 / 133 40% 1 29.10.2027 -
Samuel Posada Leones Ativo 90 / 83 40% 1 28.10.2027 -
Tiago Gordillo San Miguel Ativo 94 / 95 40% 2 26.10.2027 -
Juan Morán Godoy Cruz Ativo 110 / 96 40% 1 22.10.2027 -
David Valencia Alianza Petrolera Ativo 128 / 147 40% 1 13.10.2027 -
Esteban de Lima Tacuarembo Ativo 94 / 105 40% 1 13.10.2027 -
José Movillo O'Higgins Ativo 79 / 77 40% 1 12.10.2027 -
Camilo Rey Domenech Boca Juniors Ativo 125 / 114 40% 1 06.10.2027 -
Jokin Gabilondo Zaragoza Relatório pronto 112 / 104 76% 1 16.08.2027 -
Christos Mouzakitis Hull City Ativo 134 / 137 40% 5 02.08.2027 -
Caleb Yirenkyi Coventry City Ativo 136 / 155 40% 4 02.08.2027 -
Josh Smith Accrington Stanley Ativo 88 / 78 40% 2 02.08.2027 -
Ernie Weaver AFC Wimbledon Ativo 109 / 112 40% 4 26.07.2027 -
Jan Bürger Gillingham Ativo 115 / 123 40% 1 26.07.2027 -
Samuel Lucero Defensa y Justicia Ativo 115 / 106 40% 2 19.07.2027 -
Davide Bartesaghi AC Milan Ativo 135 / 136 40% 2 19.07.2027 -
Kazunari Kita Real Sociedad Ativo 101 / 106 40% 1 19.07.2027 -
Jofre Torrents Ajax Ativo 131 / 141 40% 2 29.06.2027 -
Bernardo Lima Porto Ativo 99 / 110 40% 1 29.06.2027 -
João Teixeira Porto Ativo 111 / 127 40% 1 29.06.2027 -
Christ Inao Oulaï Fiorentina Ativo 132 / 147 40% 4 14.06.2027 -
Bernard Sulemana Hasaacas Ativo 95 / 78 40% 2 02.06.2027 -
Bitello SC Freiburg Negociando 135 / 135 68% 1 01.06.2027 -
Facundo Torres LOSC Lille Relatório pronto 134 / 134 67% 1 01.06.2027 -
Oscar Schwartau Norwich City Ativo 121 / 125 40% 4 30.05.2027 -
Yussif Saidu Zaragoza Ativo 129 / 135 40% 3 30.05.2027 -
Ben Gannon Doak Bournemouth Ativo 141 / 151 40% 1 30.05.2027 -
Lander Astiazarán Real Sociedad Ativo 105 / 120 67% 4 29.05.2027 -
Matías Gómez Granada Ativo 114 / 121 40% 7 29.05.2027 -
Yusi Alavés Ativo 125 / 121 40% 8 27.05.2027 -
Pablo García Racing Santander Ativo 124 / 136 40% 2 27.05.2027 -
Fidel Ambríz Monterrey Ativo 128 / 115 40% 5 27.05.2027 -
Ethan Galbraith Swansea City Ativo 138 / 129 40% 4 27.05.2027 -
Isma Ruiz Córdoba Ativo 135 / 124 40% 1 27.05.2027 -
Rayan Bournemouth Ativo 137 / 136 40% 2 24.05.2027 -
Adrià Altimira Deportivo La Coruña Ativo 129 / 138 40% 3 24.05.2027 -
Daijiro Chirino Almería Ativo 135 / 134 40% 2 24.05.2027 -
Marvin Park Las Palmas Ativo 133 / 122 40% 2 22.05.2027 -
Noah Sadiki Sunderland Ativo 141 / 157 40% 1 22.05.2027 -
Kevin Vazquez Cruz Azul Ativo 138 / 121 40% 14 21.05.2027 -
Keagan Tau Ajax Cape Town Ativo 91 / 119 40% 2 21.05.2027 -
Shea Charles Southampton Ativo 137 / 147 40% 6 21.05.2027 -
Percy Jali Free State Stars Ativo 98 / 116 40% 2 21.05.2027 -
Toni Tamarit Alverca Ativo 121 / 121 40% 1 21.05.2027 -
Williams Manyama SuperSport United Ativo 119 / 108 40% 3 20.05.2027 -
Jesús Orozco Chiquete Cruz Azul Ativo 129 / 135 40% 5 19.05.2027 -
Max Bird Birmingham Ativo 138 / 123 40% 2 19.05.2027 -
Florentino Luís Ipswich Town Ativo 138 / 152 40% 4 19.05.2027 -
Richard Ledezma Guadalajara Ativo 140 / 137 40% 6 18.05.2027 -
Riley Owen Trento Ativo 103 / 107 40% 2 18.05.2027 -
Alejandro Francés Girona Ativo 130 / 137 40% 1 18.05.2027 -
Ousmane Diomande Nottingham Forest Ativo 156 / 156 40% 4 17.05.2027 -
Derry Murkin Derby County Ativo 129 / 127 40% 1 17.05.2027 -
Pol Lozano Espanyol Ativo 135 / 130 40% 6 16.05.2027 -
Callum Doyle Wrexham Ativo 132 / 138 40% 2 16.05.2027 -
Adrien Truffert Bournemouth Ativo 155 / 151 40% 2 16.05.2027 -
Moussa Diakité Cádiz Ativo 125 / 125 40% 2 15.05.2027 -
Omar El Hilali Espanyol Ativo 142 / 144 40% 6 15.05.2027 -
Welington Southampton Ativo 138 / 136 40% 5 14.05.2027 -
Joel McGregor Swindon Town Ativo 87 / 105 40% 3 14.05.2027 -
Bojan Kovačević Cádiz Ativo 124 / 130 40% 3 13.05.2027 -
Urko González Espanyol Ativo 138 / 141 40% 4 12.05.2027 -
Álex Lizancos Burgos Ativo 125 / 139 40% 3 12.05.2027 -
Rodrigo Mora AS Roma Ativo 133 / 134 40% 2 12.05.2027 -
Endrick Real Madrid Ativo 145 / 153 40% 1 12.05.2027 -
Ibrahim Maza Bayer Leverkusen Ativo 147 / 138 40% 3 11.05.2027 -
José Pachuca Puebla Ativo 108 / 105 40% 1 11.05.2027 -
Fran García Betis Ativo 146 / 140 40% 5 10.05.2027 -
Alessandro Buongiorno Sassuolo Ativo 159 / 149 40% 1 10.05.2027 -
Ryan Sessegnon Fulham Ativo 141 / 149 40% 6 09.05.2027 -
Pablo Ramón Racing Santander Ativo 131 / 140 40% 3 07.05.2027 -
Jon Garro Real Sociedad Ativo 83 / 108 67% 3 07.05.2027 -
Kristoffer Lund Birmingham Ativo 125 / 122 40% 1 07.05.2027 -
Leandro Martins Benfica Ativo 88 / 96 40% 1 07.05.2027 -
Adam Wharton Crystal Palace Ativo 153 / 151 40% 3 06.05.2027 -
Jesús Rodríguez Como Ativo 149 / 151 40% 1 05.05.2027 -
Josh King Chelsea Ativo 137 / 157 40% 1 03.05.2027 -
Ilaix Moriba Celta Ativo 145 / 141 40% 6 02.05.2027 -
Izan Merino Málaga Ativo 121 / 133 40% 4 02.05.2027 -
Milan van Ewijk Mansfield Town Ativo 127 / 119 40% 1 01.05.2027 -
Brian Rodríguez Club America Ativo 135 / 123 40% 1 29.04.2027 -
Jason Knight Bristol City Ativo 133 / 133 40% 1 29.04.2027 -
Eduardo Dos Santos Veracruz Ativo 126 / 137 40% 2 26.04.2027 -
Diego Pampín Granada Ativo 118 / 135 40% 2 26.04.2027 -
Quinten Timber Crystal Palace Ativo 150 / 157 40% 3 25.04.2027 -
Harry Clarke Preston Ativo 125 / 137 40% 1 23.04.2027 -
Javi Rodríguez Celta Ativo 154 / 165 40% 2 22.04.2027 -
Darlin Yongwa Norwich City Ativo 123 / 128 40% 1 20.04.2027 -
Othmane Maamma Watford Ativo 132 / 120 40% 3 19.04.2027 -
Ez Abde Girona Ativo 152 / 148 40% 1 19.04.2027 -
Mikkel Damsgaard Brentford Ativo 146 / 145 40% 1 19.04.2027 -
Olívio Tomé Benfica Ativo 114 / 111 40% 1 19.04.2027 -
Tani Oluwaseyi Villarreal Ativo 139 / 152 40% 6 16.04.2027 -
Diego Lainez Tigres Ativo 138 / 134 40% 1 16.04.2027 -
Víctor Guzmán Monterrey Ativo 139 / 148 40% 3 15.04.2027 -
Pedro Vite Pumas UNAM Ativo 117 / 140 40% 3 09.04.2027 -
Warren Zaïre-Emery Paris Saint-Germain Ativo 159 / 151 40% 5 08.04.2027 -
Aarón Mejía Tijuana Ativo 123 / 129 40% 5 08.04.2027 -
Martim Cunha Porto Ativo 96 / 114 40% 1 08.04.2027 -
Ramón Juárez Club America Ativo 134 / 141 40% 4 07.04.2027 -
Zane Albarus Cambridge United Ativo 94 / 100 40% 1 05.04.2027 -
Georginio Rutter Brighton Ativo 145 / 155 40% 3 04.04.2027 -
Ozziel Herrera Tigres Ativo 135 / 129 40% 11 04.04.2027 -
Emi Rodriguez Leon Ativo 117 / 124 40% 1 04.04.2027 -
Yehor Yarmoliuk Brentford Ativo 147 / 149 40% 3 01.04.2027 -
Jayden Luker Barnet Ativo 96 / 98 40% 1 30.03.2027 -
Lovro Zvonarek Estrela da Amadora Ativo 120 / 121 40% 1 29.03.2027 -
Tiago Santos LOSC Lille Ativo 148 / 131 40% 1 23.03.2027 -
Jackson Porozo Tijuana Ativo 126 / 132 40% 1 21.03.2027 -
Rômulo Tigres Ativo 123 / 112 40% 2 19.03.2027 -
Rocco Vata Watford Ativo 116 / 120 40% 1 19.03.2027 -
Jan Virgili Club Brugge Ativo 134 / 131 40% 5 17.03.2027 -
Tiago Freitas Benfica Ativo 108 / 108 40% 1 16.03.2027 -
Jonás Luna Santa Clara Ativo 118 / 126 40% 5 13.03.2027 -
Pablo Monroy Pumas UNAM Ativo 124 / 135 40% 2 11.03.2027 -
Aaron Hickey Brentford Ativo 140 / 133 40% 1 11.03.2027 -
Santiago Simón Toluca Ativo 128 / 132 40% 1 10.03.2027 -
Samir El Mourabet RC Strasbourg Ativo 121 / 122 40% 1 10.03.2027 -
Antoni Milambo Brentford Ativo 139 / 135 40% 1 10.03.2027 -
James Dornelly Peterborough United Ativo 98 / 104 40% 1 10.03.2027 -
Mandla Erasmus SuperSport United Ativo 128 / 125 40% 3 06.03.2027 -
Matt O'Riley Brighton Ativo 151 / 133 40% 1 05.03.2027 -
Efraín Álvarez Guadalajara Ativo 130 / 140 40% 5 04.03.2027 -
Tomás González Piast Ativo 118 / 130 40% 7 04.03.2027 -
Roberto Fernández Braga Ativo 138 / 145 40% 2 04.03.2027 Mais informações
Marezi Portsmouth Ativo 119 / 120 40% 1 03.03.2027 -
Yousef Salech Cardiff City Ativo 125 / 137 40% 4 01.03.2027 -
Mandla Mahlangu Ajax Cape Town Ativo 102 / 86 40% 2 01.03.2027 -
Thiago Brentford Ativo 153 / 157 40% 4 28.02.2027 -
Andrés Martín Racing Santander Ativo 132 / 148 40% 8 26.02.2027 -
Luis Vázquez Birmingham Ativo 127 / 118 40% 3 26.02.2027 -
Senny Mayulu Paris Saint-Germain Ativo 139 / 141 40% 1 26.02.2027 -
Adrián Niño Málaga Ativo 126 / 124 40% 2 24.02.2027 -
Duk Atlas Ativo 123 / 124 40% 6 23.02.2027 -
Kwame Opoku Asante Kotoko Ativo 110 / 99 40% 2 23.02.2027 -
Abel Ruiz Girona Ativo 144 / 149 40% 1 22.02.2027 -
Malick Fofana Sunderland Ativo 140 / 150 40% 3 21.02.2027 -
Bamba Dieng Crvena Zvezda Ativo 126 / 121 40% 2 21.02.2027 -
Fotis Ioannidis Rio Ave Ativo 135 / 138 40% 3 21.02.2027 Observar
Aune Heggebø West Bromwich Albion Ativo 132 / 122 40% 2 18.02.2027 -
Razvan Balasa Crvena Zvezda Ativo 154 / 125 40% 2 14.02.2027 -
Dango Ouattara Brentford Ativo 143 / 143 40% 3 12.02.2027 -
Adnan Courtois KV Oostende Ativo 133 / 126 40% 4 10.02.2027 -
Toni Fruk KV Mechelen Ativo 136 / 125 89% 3 10.02.2027 Fortemente a favor
Joaquin Seys Club Brugge Ativo 130 / 134 40% 1 10.02.2027 -
Etiosa Ighodaro Kaizer Chiefs Ativo 122 / 123 40% 1 08.02.2027 -
Diego López Rayo Vallecano Ativo 143 / 145 40% 1 07.02.2027 -
Morgan Whittaker Middlesbrough Ativo 136 / 135 40% 2 05.02.2027 -
Alejandro Gómez Tijuana Ativo 116 / 123 40% 1 05.02.2027 -
Jesús Vázquez Valencia Ativo 139 / 121 40% 1 05.02.2027 -
Israel Reyes CSKA Moscow Ativo 146 / 133 40% 2 04.02.2027 -
Ilay Camara Anderlecht Ativo 135 / 138 40% 1 03.02.2027 -
Juan Cruz Martins Jihlava Ativo 105 / 102 40% 2 01.02.2027 -
Rubén Sobrino Cultural Leonesa Ativo 116 / 130 76% 1 25.01.2027 -
Tom Cannon Sheffield United Ativo 123 / 130 40% 1 11.01.2027 -
Konstantin Tyukavin Inter Negociando 132 / 133 66% 1 01.01.2027 -
Nicolás Fernández Mercau Shakhtar Ativo 134 / 134 67% 1 01.01.2027 -
Lisandro Tejada San Martín SJ Ativo 83 / 96 40% 1 01.01.2027 -
Rayane Bounida Ajax Ativo 128 / 140 40% 1 30.12.2026 -
Germán Valera Elche Ativo 133 / 149 40% 3 28.12.2026 -
Themba Ngcobo SuperSport United Ativo 128 / 131 40% 4 27.12.2026 -
Ferran Jutglà Celta Ativo 137 / 149 40% 4 26.12.2026 -
Mfundo Vilakazi Kaizer Chiefs Ativo 104 / 110 40% 1 25.12.2026 -
Hakim Sulemana Medeama Ativo 103 / 121 40% 1 25.12.2026 -
Joaquín Panichelli Le Havre AC Ativo 142 / 146 40% 1 20.12.2026 -
Giacomo Raspadori Atalanta Ativo 154 / 157 40% 2 18.12.2026 -
Diego Gaitán Maipú Ativo 103 / 129 40% 1 13.12.2026 -
Ramiro Ruiz Rodríguez Atlético Tucumán Ativo 125 / 108 40% 5 10.12.2026 -
Jonathan Dubasin Osasuna Ativo 139 / 134 40% 2 10.12.2026 -
Tommy Conway Middlesbrough Ativo 126 / 135 40% 1 08.12.2026 -
Ruben van Bommel Ferencvaros Ativo 130 / 132 40% 1 06.12.2026 -
Agustín Módica Gimnasia y Esgrima Ativo 119 / 114 40% 1 03.12.2026 -
Alexander Díaz Deportivo Riestra Ativo 125 / 110 40% 3 02.12.2026 -
Urko Izeta Cádiz Ativo 126 / 116 40% 2 02.12.2026 -
Alexis Cuello San Lorenzo Ativo 126 / 143 40% 4 28.11.2026 -
Wilson Isidor Sunderland Ativo 140 / 135 40% 1 27.11.2026 -
Tyler Adams Bournemouth Ativo 147 / 160 40% 1 26.11.2026 -
Manuel Ospina Cortulua Ativo 120 / 142 40% 2 24.11.2026 -
Ethan Williams Peterborough United Ativo 113 / 122 40% 2 06.11.2026 -
Patrick Preciado Deportivo Pasto Ativo 104 / 115 40% 1 06.11.2026 -
Nicolò Tresoldi Club Brugge Ativo 128 / 129 40% 1 04.11.2026 -
Lorent Tolaj Plymouth Argyle Ativo 120 / 118 40% 1 03.11.2026 -
Arda Güler Real Madrid Ativo 152 / 160 40% 1 03.11.2026 -
Santiago Sala Güemes Ativo 102 / 121 40% 4 01.11.2026 -
Juan Cruz Meza River Plate Ativo 99 / 128 40% 1 01.11.2026 -
Mauro Valiente Estudiantes Ativo 119 / 133 40% 1 28.10.2026 -
Tristan Degreef Anderlecht Ativo 129 / 127 40% 1 28.10.2026 -
Mateo Garavito Deportivo Pasto Ativo 124 / 114 40% 2 22.10.2026 -
Jermein Peña Junior Ativo 126 / 131 40% 1 22.10.2026 -
José Castillo Guadalajara Ativo 113 / 117 40% 1 21.10.2026 -
José Ortiz Atletico Bucaramanga Ativo 114 / 113 40% 1 19.10.2026 -
Gavi Barcelona Ativo 161 / 151 40% 1 19.10.2026 -
Eric Meza Estudiantes Ativo 131 / 126 40% 1 19.10.2026 -
Juan Manuel Zapata Envigado Ativo 123 / 99 40% 2 18.10.2026 -
Leandro Lozano Boca Juniors Ativo 133 / 119 40% 1 18.10.2026 -
Omar Campos Cruz Azul Ativo 117 / 115 40% 1 18.10.2026 -
Nicolás Cordero Aldosivi Ativo 112 / 124 40% 2 17.10.2026 -
Juan Rocca Gimnasia y Tiro Ativo 111 / 99 40% 1 17.10.2026 -
César Ibáñez Huracán Ativo 125 / 127 40% 1 16.10.2026 -
Luca Martínez Dupuy Godoy Cruz Ativo 121 / 113 40% 1 14.10.2026 -
Bénie Traoré New York City Ativo 131 / 138 40% 2 13.10.2026 -
Martín Garay Tigre Ativo 111 / 114 40% 1 11.10.2026 -
Adalberto Carrasquilla Pumas UNAM Ativo 123 / 127 40% 1 10.10.2026 -
Matías Sosa Arsenal Ativo 110 / 107 40% 1 08.10.2026 -
Rafael Navarro St. Louis CITY SC Ativo 126 / 124 40% 1 08.10.2026 -
Oscar Salomón Newell's Old Boys Ativo 122 / 142 40% 1 07.10.2026 -
Nicolás Fonseca Leon Ativo 122 / 134 40% 1 07.10.2026 -
Sebastián Cocimano Nueva Chicago Ativo 122 / 106 40% 1 06.10.2026 -
Luis Montilla San Telmo Ativo 76 / 102 40% 2 31.08.2026 -
Iván Alejo Valladolid Ativo 121 / 125 76% 1 31.08.2026 Aprovar
Federico Bonini Almería Ativo 126 / 125 76% 1 17.08.2026 Aprovar
Agustín Olavarría Colon Ativo 81 / 85 40% 1 10.08.2026 -
Salvi Sánchez Ativo 125 / 124 76% 1 03.08.2026 Aprovar